Airfield :
LOGIN :

Register | Disclaimer

   EN    FR    IT 

 










Legend :    VFR   Marginal VFR   IFR   Intensive IFR   Very Intensive IFR
Visi :
Ceiling :
>= 8 km
>= 3000ft
5 to 8 km
1000 to 3000 ft
1500m to 5 km
500 to 1000 ft
800 to 1500m
200 to 500 ft
< 800m
< 200 ft
Symbols :   Thunderstorms  Fog  Heavy snow  Heavy precipitations  Wind > 20 kt
SIGMETs :     Misc.  Thunderstorms  Icing  Turbulence  Mountain Waves  Volcanic Ashes






- Airport Elevation : 14 ft
- IATA code : BRE


EDDW - Bremen Neuenland

CURRENT METAR :
  • 280750Z AUTO 30018KT 9999 -SHRA FEW022 BKN048 FEW///CB 11/08 Q1017 NOSIG

EXPIRED METARs :
  • 280720Z AUTO 30015KT 9999 FEW023 SCT049 12/08 Q1016 TEMPO 30015G30KT
  • 280650Z AUTO 30015KT 9999 FEW018 BKN022 11/07 Q1016 TEMPO 30015G25KT
  • 280620Z AUTO 30015KT 9999 FEW020 11/07 Q1016 BECMG 30015G25KT
  • 280550Z AUTO 29014KT 9999 FEW019 BKN048 10/07 Q1016 BECMG 30015G25KT
  • 280520Z AUTO 31013KT 8000 -SHRA SCT019 OVC041 FEW///CB 09/07 Q1016 RESHRA

TAF TAF EDDW
Valid from the 28 at 06:00 until the 29 at 06:00 UTC


280500Z 2806/2906 27012KT 9999 SCT025
BECMG 2806/2808 29015G25KT
PROB40
TEMPO 2806/2811 SHRA SCT020CB
TEMPO 2808/2816 30020G35KT
BECMG 2819/2821 29010KT
PROB30
TEMPO 2821/2906 4000 -RA BKN012



MET'MAP, your aeronautical weather chart ! - Copyright ORBIFLY December 2007 - Disclaimer

ORBIFLY MET'MAP TEAM :

Programming & Development : Alexandra Zaïnal
Original concept : Baudouin d'Aumeries
Technical & hardware support : Manuel Goepfert
Assistance : Marc-Olivier Méhu

Contact : metmap@orbifly.com




SOURCES & CREDITS :

   NOAA